createdAt,value
2018-04-19T00:01:34.179Z,72.31
2018-04-19T00:04:01.827Z,72.53
2018-04-19T00:06:29.445Z,72.68
2018-04-19T00:08:57.099Z,72.88
2018-04-19T00:11:24.720Z,73.07
2018-04-19T00:13:52.375Z,73.33
2018-04-19T00:16:19.991Z,73.56
2018-04-19T00:18:47.623Z,73.83
2018-04-19T00:21:15.258Z,73.75
2018-04-19T00:23:43.536Z,73.86
2018-04-19T00:26:11.182Z,74.23
2018-04-19T00:28:38.802Z,74.32
2018-04-19T00:31:06.453Z,74.42
2018-04-19T00:33:34.076Z,74.70
2018-04-19T00:36:01.748Z,75.04
2018-04-19T00:38:29.376Z,75.32
2018-04-19T00:40:57.021Z,75.42
2018-04-19T00:43:24.635Z,75.40
2018-04-19T00:45:52.386Z,75.41
2018-04-19T00:48:20.056Z,75.19
2018-04-19T00:50:47.710Z,74.98
2018-04-19T00:53:15.327Z,74.82
2018-04-19T00:55:42.975Z,74.85
2018-04-19T00:58:10.701Z,74.76
2018-04-19T01:00:38.342Z,74.70
2018-04-19T01:03:06.027Z,74.75
2018-04-19T01:05:33.690Z,74.70
2018-04-19T01:08:01.326Z,75.05
2018-04-19T01:10:29.011Z,75.44
2018-04-19T01:12:56.636Z,75.64
2018-04-19T01:15:24.267Z,75.81
2018-04-19T01:17:51.901Z,75.86
2018-04-19T01:20:19.538Z,75.88
2018-04-19T01:22:47.224Z,75.89
2018-04-19T01:25:14.877Z,75.86
2018-04-19T01:27:42.483Z,75.84
2018-04-19T01:30:10.220Z,75.84
2018-04-19T01:32:37.864Z,75.69
2018-04-19T01:35:05.479Z,75.68
2018-04-19T01:37:33.200Z,75.73
2018-04-19T01:40:00.859Z,75.75
2018-04-19T01:42:28.524Z,75.93
2018-04-19T01:47:23.230Z,76.00
2018-04-19T01:49:50.834Z,76.07
2018-04-19T01:52:18.564Z,76.24
2018-04-19T01:54:46.182Z,76.22
2018-04-19T01:57:13.822Z,76.25
2018-04-19T01:59:41.436Z,76.24
2018-04-19T02:02:09.069Z,76.45
2018-04-19T02:04:36.779Z,76.35
2018-04-19T02:07:04.432Z,76.28
2018-04-19T02:09:32.099Z,76.42
2018-04-19T02:11:59.764Z,76.73
2018-04-19T02:14:27.391Z,77.04
2018-04-19T02:16:55.034Z,76.90
2018-04-19T02:19:22.647Z,76.92
2018-04-19T02:21:50.286Z,76.79
2018-04-19T02:24:17.905Z,76.62
2018-04-19T02:26:45.542Z,76.28
2018-04-19T02:29:13.158Z,76.33
2018-04-19T02:31:40.787Z,76.44
2018-04-19T02:34:08.418Z,76.44
2018-04-19T02:36:36.037Z,76.54
2018-04-19T02:39:03.666Z,76.56
2018-04-19T02:41:31.281Z,76.38
2018-04-19T02:43:58.968Z,76.35
2018-04-19T02:46:26.582Z,76.39
2018-04-19T02:48:54.279Z,76.30
2018-04-19T02:51:21.899Z,76.37
2018-04-19T02:53:49.534Z,76.35
2018-04-19T02:56:17.148Z,76.28
2018-04-19T02:58:44.786Z,76.20
2018-04-19T03:01:12.423Z,76.21
2018-04-19T03:03:40.054Z,76.33
2018-04-19T03:06:07.675Z,76.37
2018-04-19T03:08:35.311Z,76.40
2018-04-19T03:11:02.948Z,76.64
2018-04-19T03:13:30.582Z,76.90
2018-04-19T03:15:58.200Z,77.10
2018-04-19T03:18:25.839Z,77.07
2018-04-19T03:20:53.450Z,77.01
2018-04-19T03:23:21.146Z,77.01
2018-04-19T03:25:48.758Z,76.92
2018-04-19T03:28:16.399Z,76.97
2018-04-19T03:30:44.044Z,76.86
2018-04-19T03:33:11.687Z,76.84
2018-04-19T03:35:39.302Z,76.78
2018-04-19T03:38:07.027Z,76.65
2018-04-19T03:40:34.643Z,76.67
2018-04-19T03:43:02.264Z,76.66
2018-04-19T03:45:30.110Z,76.67
2018-04-19T03:47:57.727Z,76.65
2018-04-19T03:50:25.362Z,76.66
2018-04-19T03:52:52.975Z,76.62
2018-04-19T03:55:20.663Z,76.71
2018-04-19T03:57:48.328Z,76.52
2018-04-19T04:00:15.986Z,76.49
2018-04-19T04:02:43.616Z,76.35
2018-04-19T04:05:11.251Z,76.28
2018-04-19T04:07:38.864Z,76.30
2018-04-19T04:10:06.507Z,76.28
2018-04-19T04:12:34.203Z,76.48
2018-04-19T04:15:01.902Z,76.74
2018-04-19T04:17:41.498Z,76.81
2018-04-19T04:20:20.937Z,76.80
2018-04-19T04:23:02.028Z,76.85
2018-04-19T04:25:29.671Z,76.74
2018-04-19T04:27:57.279Z,76.48
2018-04-19T04:30:24.912Z,76.37
2018-04-19T04:32:52.571Z,76.45
2018-04-19T04:35:20.301Z,76.61
2018-04-19T04:37:47.889Z,76.60
2018-04-19T04:40:15.559Z,76.49
2018-04-19T04:42:43.179Z,76.47
2018-04-19T04:45:10.825Z,76.38
2018-04-19T04:47:38.438Z,76.29
2018-04-19T04:50:06.078Z,76.17
2018-04-19T04:52:33.762Z,76.04
2018-04-19T04:55:01.370Z,75.99
2018-04-19T04:57:29.015Z,75.86
2018-04-19T04:59:56.654Z,75.65
2018-04-19T05:02:24.286Z,75.46
2018-04-19T05:04:51.978Z,75.37
2018-04-19T05:07:19.617Z,75.25
2018-04-19T05:09:47.307Z,74.95
2018-04-19T05:12:14.946Z,74.77
2018-04-19T05:14:42.562Z,74.59
2018-04-19T05:17:10.295Z,74.48
2018-04-19T05:19:37.954Z,74.35
2018-04-19T05:22:05.619Z,74.23
2018-04-19T05:24:33.275Z,74.05
2018-04-19T05:27:00.906Z,74.01
2018-04-19T05:29:28.607Z,74.03
2018-04-19T05:31:56.266Z,73.94
2018-04-19T05:34:23.934Z,73.91
2018-04-19T05:36:51.599Z,73.89
2018-04-19T05:39:19.211Z,73.96
2018-04-19T05:41:46.842Z,74.02
2018-04-19T05:44:14.450Z,74.07
2018-04-19T05:46:42.133Z,74.00
2018-04-19T05:49:09.742Z,74.08
2018-04-19T05:51:37.458Z,74.17
2018-04-19T05:54:05.326Z,74.26
2018-04-19T05:56:32.967Z,74.25
2018-04-19T05:59:00.591Z,74.30
2018-04-19T06:01:28.222Z,74.27
2018-04-19T06:03:55.847Z,74.33
2018-04-19T06:06:23.462Z,74.22
2018-04-19T06:08:51.099Z,74.11
2018-04-19T06:11:18.719Z,74.07
2018-04-19T06:13:46.431Z,73.82
2018-04-19T06:16:14.052Z,73.50
2018-04-19T06:18:41.761Z,73.31
2018-04-19T06:21:09.384Z,73.28
2018-04-19T06:23:37.014Z,73.17
2018-04-19T06:26:04.632Z,72.75
2018-04-19T06:28:32.307Z,72.35
2018-04-19T06:30:59.926Z,72.03
2018-04-19T06:33:27.569Z,71.83
2018-04-19T06:35:55.305Z,71.79
2018-04-19T06:38:22.939Z,71.56
2018-04-19T06:40:50.554Z,71.58
2018-04-19T06:43:18.259Z,71.57
2018-04-19T06:45:45.943Z,71.42
2018-04-19T06:48:13.574Z,71.11
2018-04-19T06:50:42.027Z,71.09
2018-04-19T06:53:09.742Z,70.87
2018-04-19T06:55:37.415Z,70.76
2018-04-19T06:58:05.070Z,70.74
2018-04-19T07:00:32.830Z,70.44
2018-04-19T07:03:00.596Z,70.18
2018-04-19T07:05:28.262Z,69.88
2018-04-19T07:07:55.899Z,69.66
2018-04-19T07:10:23.756Z,69.42
2018-04-19T07:12:51.410Z,69.27
2018-04-19T07:15:19.217Z,69.04
2018-04-19T07:17:46.827Z,68.74
2018-04-19T07:20:14.547Z,68.48
2018-04-19T07:22:42.164Z,68.37
2018-04-19T07:25:09.807Z,68.15
2018-04-19T07:27:37.415Z,68.08
2018-04-19T07:30:05.094Z,67.61
2018-04-19T07:32:32.715Z,67.22
2018-04-19T07:35:00.355Z,66.95
2018-04-19T07:37:28.078Z,66.53
2018-04-19T07:39:55.715Z,66.46
2018-04-19T07:42:23.405Z,66.20
2018-04-19T07:44:51.042Z,65.47
2018-04-19T07:47:18.664Z,65.29
2018-04-19T07:49:46.398Z,65.07
2018-04-19T07:52:14.010Z,64.59
2018-04-19T07:54:41.722Z,64.09
2018-04-19T07:57:09.386Z,63.86
2018-04-19T07:59:37.041Z,63.90
2018-04-19T08:02:04.806Z,62.93
2018-04-19T08:04:32.473Z,62.78
2018-04-19T08:07:00.096Z,62.35
2018-04-19T08:09:27.731Z,61.73
2018-04-19T08:11:55.360Z,61.34
2018-04-19T08:14:23.016Z,60.79
2018-04-19T08:16:50.636Z,60.88
2018-04-19T08:19:18.272Z,60.86
2018-04-19T08:21:45.883Z,60.03
2018-04-19T08:24:13.565Z,59.77
2018-04-19T08:26:41.228Z,59.59
2018-04-19T08:29:08.895Z,59.18
2018-04-19T08:31:36.499Z,58.72
2018-04-19T08:34:04.297Z,58.52
2018-04-19T08:36:31.984Z,58.47
2018-04-19T08:38:59.642Z,57.91
2018-04-19T08:41:27.408Z,57.63
2018-04-19T08:43:55.015Z,57.56
2018-04-19T08:46:22.650Z,57.17
2018-04-19T08:48:50.271Z,57.35
2018-04-19T08:51:17.956Z,57.74
2018-04-19T08:53:45.557Z,57.22
2018-04-19T08:56:13.186Z,56.96
2018-04-19T08:58:40.798Z,57.03
2018-04-19T09:01:08.512Z,56.73
2018-04-19T09:03:36.171Z,56.28
2018-04-19T09:06:03.830Z,55.99
2018-04-19T09:08:31.492Z,55.80
2018-04-19T09:10:59.130Z,55.26
2018-04-19T09:13:26.821Z,55.01
2018-04-19T09:15:54.473Z,54.85
2018-04-19T09:18:22.078Z,55.27
2018-04-19T09:20:49.719Z,55.10
2018-04-19T09:23:17.381Z,54.42
2018-04-19T09:25:45.133Z,54.20
2018-04-19T09:28:12.748Z,53.56
2018-04-19T09:30:40.529Z,53.08
2018-04-19T09:33:08.222Z,53.10
2018-04-19T09:35:35.860Z,52.64
2018-04-19T09:38:03.471Z,52.67
2018-04-19T09:40:31.108Z,52.50
2018-04-19T09:42:58.770Z,52.11
2018-04-19T09:45:26.441Z,52.12
2018-04-19T09:47:54.086Z,52.10
2018-04-19T09:50:21.716Z,51.79
2018-04-19T09:52:49.351Z,52.09
2018-04-19T09:55:16.982Z,51.67
2018-04-19T09:57:56.420Z,51.21
2018-04-19T10:00:24.031Z,51.17
2018-04-19T10:02:51.662Z,51.08
2018-04-19T10:05:19.275Z,51.21
2018-04-19T10:07:46.965Z,51.26
2018-04-19T10:10:14.576Z,50.96
2018-04-19T10:12:42.353Z,51.30
2018-04-19T10:15:09.966Z,51.66
2018-04-19T10:17:37.631Z,51.79
2018-04-19T10:20:05.282Z,51.84
2018-04-19T10:22:32.915Z,51.94
2018-04-19T10:25:00.610Z,52.04
2018-04-19T10:27:28.324Z,51.03
2018-04-19T10:29:55.937Z,50.99
2018-04-19T10:32:23.571Z,50.88
2018-04-19T10:34:51.184Z,50.76
2018-04-19T10:37:18.919Z,49.78
2018-04-19T10:39:46.939Z,49.58
2018-04-19T10:42:14.571Z,50.04
2018-04-19T10:44:42.187Z,49.23
2018-04-19T10:47:09.823Z,49.42
2018-04-19T10:49:37.445Z,48.88
2018-04-19T10:52:05.083Z,48.57
2018-04-19T10:54:32.763Z,48.80
2018-04-19T10:57:00.933Z,48.76
2018-04-19T10:59:28.597Z,48.55
2018-04-19T11:01:56.232Z,47.91
2018-04-19T11:04:23.925Z,47.96
2018-04-19T11:06:51.587Z,45.88
2018-04-19T11:09:19.239Z,46.66
2018-04-19T11:11:46.883Z,47.15
2018-04-19T11:14:14.578Z,46.74
2018-04-19T11:16:42.239Z,46.37
2018-04-19T11:19:09.896Z,46.97
2018-04-19T11:21:37.661Z,46.84
2018-04-19T11:24:05.323Z,47.59
2018-04-19T11:26:33.089Z,46.96
2018-04-19T11:29:00.853Z,46.48
2018-04-19T11:31:28.515Z,46.86
2018-04-19T11:33:56.122Z,46.96
2018-04-19T11:36:23.840Z,47.17
2018-04-19T11:38:51.511Z,46.91
2018-04-19T11:41:19.124Z,46.68
2018-04-19T11:43:46.763Z,46.26
2018-04-19T11:46:14.490Z,46.38
2018-04-19T11:48:42.258Z,46.07
2018-04-19T11:51:10.020Z,45.24
2018-04-19T11:53:37.703Z,45.75
2018-04-19T11:56:05.353Z,45.90
2018-04-19T11:58:33.111Z,46.11
2018-04-19T12:01:00.833Z,45.86
2018-04-19T12:03:28.606Z,45.11
2018-04-19T12:05:56.297Z,44.96
2018-04-19T12:08:23.935Z,44.91
2018-04-19T12:10:51.631Z,44.71
2018-04-19T12:13:19.396Z,45.04
2018-04-19T12:15:47.007Z,45.52
2018-04-19T12:18:14.646Z,45.54
2018-04-19T12:20:42.260Z,45.83
2018-04-19T12:23:09.903Z,45.51
2018-04-19T12:25:37.512Z,45.50
2018-04-19T12:28:05.166Z,45.54
2018-04-19T12:30:32.835Z,45.38
2018-04-19T12:33:00.471Z,45.23
2018-04-19T12:35:28.087Z,45.78
2018-04-19T12:37:55.722Z,46.07
2018-04-19T12:40:23.391Z,45.70
2018-04-19T12:42:51.022Z,45.67
2018-04-19T12:45:18.639Z,45.87
2018-04-19T12:47:46.276Z,45.45
2018-04-19T12:50:13.924Z,45.78
2018-04-19T12:52:41.594Z,45.42
2018-04-19T12:55:09.199Z,45.03
2018-04-19T12:57:36.827Z,44.91
2018-04-19T13:00:04.434Z,44.73
2018-04-19T13:02:32.066Z,45.03
2018-04-19T13:04:59.671Z,45.10
2018-04-19T13:07:27.459Z,45.31
2018-04-19T13:09:55.131Z,44.76
2018-04-19T13:12:22.758Z,44.29
2018-04-19T13:14:50.371Z,43.67
2018-04-19T13:17:18.011Z,43.81
2018-04-19T13:19:45.638Z,43.97
2018-04-19T13:22:13.332Z,44.31
2018-04-19T13:24:41.003Z,44.48
2018-04-19T13:27:08.614Z,44.05
2018-04-19T13:29:36.238Z,44.56
2018-04-19T13:32:03.855Z,44.35
2018-04-19T13:34:31.490Z,44.87
2018-04-19T13:36:59.096Z,44.43
2018-04-19T13:39:26.736Z,44.32
2018-04-19T13:41:54.435Z,44.34
2018-04-19T13:44:22.070Z,44.24
2018-04-19T13:46:49.687Z,44.29
2018-04-19T13:49:17.314Z,44.52
2018-04-19T13:51:44.976Z,44.41
2018-04-19T13:54:12.611Z,43.88
2018-04-19T13:56:40.218Z,44.07
2018-04-19T13:59:07.862Z,44.32
2018-04-19T14:01:35.466Z,44.09
2018-04-19T14:04:03.090Z,43.77
2018-04-19T14:06:30.755Z,43.22
2018-04-19T14:08:58.391Z,43.08
2018-04-19T14:11:26.040Z,42.83
2018-04-19T14:13:53.676Z,43.00
2018-04-19T14:16:21.294Z,43.01
2018-04-19T14:18:48.925Z,43.51
2018-04-19T14:21:16.727Z,43.46
2018-04-19T14:23:44.382Z,43.45
2018-04-19T14:26:11.998Z,43.49
2018-04-19T14:28:39.811Z,43.55
2018-04-19T14:31:07.484Z,43.11
2018-04-19T14:33:35.139Z,42.93
2018-04-19T14:36:02.757Z,43.13
2018-04-19T14:38:30.391Z,43.26
2018-04-19T14:40:58.023Z,43.22
2018-04-19T14:43:25.787Z,43.35
2018-04-19T14:45:53.454Z,43.95
2018-04-19T14:48:21.091Z,43.94
2018-04-19T14:50:48.782Z,44.18
2018-04-19T14:53:16.441Z,44.28
2018-04-19T14:55:44.106Z,44.13
2018-04-19T14:58:11.772Z,43.88
2018-04-19T15:00:39.580Z,43.83
2018-04-19T15:03:07.530Z,43.96
2018-04-19T15:05:35.226Z,44.51
2018-04-19T15:08:02.877Z,44.04
2018-04-19T15:10:30.590Z,44.14
2018-04-19T15:12:58.241Z,43.89
2018-04-19T15:15:26.008Z,44.36
2018-04-19T15:17:53.678Z,44.12
2018-04-19T15:20:21.310Z,44.67
2018-04-19T15:22:49.104Z,44.83
2018-04-19T15:25:16.770Z,45.28
2018-04-19T15:27:45.363Z,45.71
2018-04-19T15:30:12.990Z,45.55
2018-04-19T15:32:40.607Z,45.85
2018-04-19T15:35:08.347Z,46.00
2018-04-19T15:37:36.552Z,46.08
2018-04-19T15:40:04.192Z,46.21
2018-04-19T15:42:31.803Z,46.21
2018-04-19T15:44:59.440Z,46.68
2018-04-19T15:47:27.183Z,46.94
2018-04-19T15:49:54.947Z,46.88
2018-04-19T15:52:22.587Z,47.00
2018-04-19T15:54:50.223Z,46.50
2018-04-19T15:57:17.835Z,46.74
2018-04-19T15:59:45.583Z,46.42
2018-04-19T16:02:13.282Z,46.25
2018-04-19T16:04:40.904Z,46.15
2018-04-19T16:07:08.566Z,46.04
2018-04-19T16:09:36.202Z,45.98
2018-04-19T16:12:03.834Z,45.84
2018-04-19T16:14:31.480Z,45.96
2018-04-19T16:16:59.123Z,45.97
2018-04-19T16:19:26.783Z,45.50
2018-04-19T16:21:54.399Z,45.56
2018-04-19T16:24:22.107Z,45.41
2018-04-19T16:26:49.868Z,45.79
2018-04-19T16:29:17.526Z,45.97
2018-04-19T16:31:45.136Z,45.89
2018-04-19T16:34:12.780Z,46.01
2018-04-19T16:36:40.391Z,46.00
2018-04-19T16:39:08.035Z,45.54
2018-04-19T16:41:35.642Z,45.38
2018-04-19T16:44:03.261Z,45.16
2018-04-19T16:46:30.892Z,44.94
2018-04-19T16:48:58.632Z,45.93
2018-04-19T16:51:26.270Z,47.49
2018-04-19T16:53:53.899Z,48.22
2018-04-19T16:56:21.538Z,48.83
2018-04-19T16:58:49.175Z,49.23
2018-04-19T17:01:16.856Z,49.26
2018-04-19T17:03:44.510Z,49.61
2018-04-19T17:06:12.158Z,49.92
2018-04-19T17:08:39.791Z,50.23
2018-04-19T17:11:07.490Z,50.46
2018-04-19T17:13:35.100Z,50.65
2018-04-19T17:16:02.810Z,50.72
2018-04-19T17:18:30.481Z,51.06
2018-04-19T17:20:58.132Z,51.03
2018-04-19T17:23:25.738Z,51.40
2018-04-19T17:25:53.382Z,51.74
2018-04-19T17:28:21.004Z,52.13
2018-04-19T17:30:48.682Z,52.55
2018-04-19T17:33:16.353Z,52.98
2018-04-19T17:35:44.113Z,53.27
2018-04-19T17:38:11.740Z,53.71
2018-04-19T17:40:39.828Z,54.09
2018-04-19T17:43:07.443Z,54.64
2018-04-19T17:45:35.074Z,54.88
2018-04-19T17:48:02.750Z,55.10
2018-04-19T17:50:30.398Z,55.37
2018-04-19T17:52:58.086Z,56.07
2018-04-19T17:55:25.731Z,56.06
2018-04-19T17:57:53.384Z,56.36
2018-04-19T18:00:21.043Z,56.85
2018-04-19T18:02:48.711Z,57.10
2018-04-19T18:05:16.352Z,57.45
2018-04-19T18:07:43.975Z,57.82
2018-04-19T18:10:11.619Z,58.06
2018-04-19T18:12:39.247Z,58.25
2018-04-19T18:15:06.886Z,58.32
2018-04-19T18:17:34.579Z,58.42
2018-04-19T18:20:02.232Z,58.45
2018-04-19T18:22:29.842Z,58.63
2018-04-19T18:24:57.459Z,58.68
2018-04-19T18:27:25.086Z,58.93
2018-04-19T18:29:52.698Z,59.04
2018-04-19T18:32:20.329Z,59.23
2018-04-19T18:34:48.012Z,59.60
2018-04-19T18:37:15.650Z,59.80
2018-04-19T18:39:43.340Z,60.05
2018-04-19T18:42:11.011Z,60.29
2018-04-19T18:44:38.628Z,60.48
2018-04-19T18:47:06.322Z,60.42
2018-04-19T18:49:33.938Z,60.65
2018-04-19T18:52:01.584Z,60.63
2018-04-19T18:54:29.210Z,60.63
2018-04-19T18:56:56.846Z,60.84
2018-04-19T18:59:24.532Z,60.96
2018-04-19T19:01:52.164Z,61.03
2018-04-19T19:04:19.859Z,61.23
2018-04-19T19:06:47.492Z,61.41
2018-04-19T19:09:15.221Z,61.58
2018-04-19T19:11:42.841Z,61.78
2018-04-19T19:14:10.450Z,62.04
2018-04-19T19:16:38.189Z,62.28
2018-04-19T19:19:17.820Z,62.50
2018-04-19T19:21:45.486Z,62.59
2018-04-19T19:24:13.134Z,62.73
2018-04-19T19:26:40.798Z,62.85
2018-04-19T19:29:08.434Z,62.97
2018-04-19T19:31:36.130Z,63.33
2018-04-19T19:34:03.790Z,63.31
2018-04-19T19:36:31.454Z,63.29
2018-04-19T19:38:59.083Z,63.31
2018-04-19T19:41:26.699Z,63.36
2018-04-19T19:43:54.439Z,63.55
2018-04-19T19:46:22.098Z,63.60
2018-04-19T19:48:49.743Z,63.76
2018-04-19T19:51:18.174Z,64.00
2018-04-19T19:53:45.806Z,64.09
2018-04-19T19:56:13.426Z,64.27
2018-04-19T19:58:41.135Z,64.39
2018-04-19T20:01:08.754Z,64.63
2018-04-19T20:03:36.454Z,64.65
2018-04-19T20:06:04.080Z,64.85
2018-04-19T20:08:31.734Z,65.17
2018-04-19T20:10:59.438Z,65.36
2018-04-19T20:13:27.098Z,65.53
2018-04-19T20:15:54.721Z,65.67
2018-04-19T20:18:22.430Z,65.87
2018-04-19T20:20:50.105Z,65.92
2018-04-19T20:23:17.759Z,66.00
2018-04-19T20:25:45.394Z,66.19
2018-04-19T20:28:13.084Z,66.23
2018-04-19T20:30:40.714Z,66.29
2018-04-19T20:33:08.327Z,66.38
2018-04-19T20:35:36.437Z,66.59
2018-04-19T20:38:04.050Z,66.76
2018-04-19T20:40:31.704Z,66.85
2018-04-19T20:42:59.372Z,67.03
2018-04-19T20:45:27.006Z,67.17
2018-04-19T20:47:54.685Z,67.37
2018-04-19T20:50:22.337Z,67.50
2018-04-19T20:52:49.955Z,67.62
2018-04-19T20:55:17.591Z,67.82
2018-04-19T20:57:45.207Z,67.98
2018-04-19T21:00:12.898Z,68.12
2018-04-19T21:02:40.561Z,68.21
2018-04-19T21:05:08.202Z,68.31
2018-04-19T21:07:35.928Z,68.50
2018-04-19T21:10:03.551Z,68.72
2018-04-19T21:12:31.176Z,68.85
2018-04-19T21:14:58.805Z,68.90
2018-04-19T21:17:26.414Z,69.06
2018-04-19T21:19:54.046Z,69.12
2018-04-19T21:22:21.754Z,69.14
2018-04-19T21:24:49.387Z,69.23
2018-04-19T21:27:17.078Z,69.38
2018-04-19T21:29:44.846Z,69.54
2018-04-19T21:32:12.607Z,69.59
2018-04-19T21:34:40.255Z,69.60
2018-04-19T21:37:07.894Z,69.80
2018-04-19T21:39:35.520Z,70.04
2018-04-19T21:42:03.208Z,70.33
2018-04-19T21:44:30.810Z,70.62
2018-04-19T21:46:58.451Z,70.72
2018-04-19T21:49:26.066Z,70.81
2018-04-19T21:51:53.802Z,70.87
2018-04-19T21:54:21.418Z,70.82
2018-04-19T21:56:49.059Z,70.81
2018-04-19T21:59:16.670Z,70.80
2018-04-19T22:01:44.392Z,70.81
2018-04-19T22:04:11.999Z,70.91
2018-04-19T22:06:39.644Z,70.99
2018-04-19T22:09:07.259Z,71.01
2018-04-19T22:11:35.008Z,71.11
2018-04-19T22:14:02.665Z,71.26
2018-04-19T22:16:30.330Z,71.27
2018-04-19T22:18:57.938Z,71.31
2018-04-19T22:21:25.588Z,71.36
2018-04-19T22:23:53.328Z,71.44
2018-04-19T22:26:20.974Z,71.51
2018-04-19T22:28:48.647Z,71.46
2018-04-19T22:31:16.292Z,71.63
2018-04-19T22:33:43.909Z,71.64
2018-04-19T22:36:11.553Z,71.71
2018-04-19T22:38:39.171Z,71.90
2018-04-19T22:41:06.822Z,71.95
2018-04-19T22:43:34.426Z,71.99
2018-04-19T22:46:02.074Z,72.04
2018-04-19T22:48:29.734Z,72.07
2018-04-19T22:50:57.344Z,72.10
2018-04-19T22:53:24.988Z,72.18
2018-04-19T22:55:52.612Z,72.40
2018-04-19T22:58:20.247Z,72.49
2018-04-19T23:00:47.959Z,72.50
2018-04-19T23:03:15.594Z,72.52
2018-04-19T23:05:43.211Z,72.69
2018-04-19T23:08:10.851Z,72.79
2018-04-19T23:10:38.458Z,72.93
2018-04-19T23:13:06.103Z,73.03
2018-04-19T23:15:33.823Z,73.05
2018-04-19T23:18:01.492Z,73.16
2018-04-19T23:20:29.141Z,73.18
2018-04-19T23:22:56.774Z,73.35
2018-04-19T23:25:24.386Z,73.50
2018-04-19T23:27:52.028Z,73.69
2018-04-19T23:30:19.704Z,73.78
2018-04-19T23:32:47.352Z,73.85
2018-04-19T23:35:14.967Z,73.89
2018-04-19T23:37:42.695Z,73.92
2018-04-19T23:40:10.341Z,73.98
2018-04-19T23:42:37.974Z,74.04
2018-04-19T23:45:05.668Z,74.12
2018-04-19T23:47:33.334Z,74.25
2018-04-19T23:50:00.952Z,74.35
2018-04-19T23:52:28.658Z,74.57
2018-04-19T23:54:56.314Z,74.90
2018-04-19T23:57:23.969Z,75.16
2018-04-19T23:59:51.651Z,75.38
